Fresnal Canyon, Arizona
Current Conditions -  °F | °C
As of 8:45 AM on Thursday 27 Nov 2014 (Local Time) from KRYN Reporting Station
Clear Clear  
Wind Chill: 16°   Ceiling: Unl
Heat Index: 16°   Visibility: 10mi
Dew Point: -5°   Wind: 6mph
Humidity: 23%   Direction: 90°E
Pressure: 30.24"   Gusts: NA
Location:  32.0925°N, 112.129°W
Report Text: KRYN 271545Z 09005KT 10SM CLR 16/M05 A3024
Loading
Personal Weather Stations






























Interactive Weather Map New forecast layout! Learn more

10-Day Weather Forecast

Advertisements
Track Severe Weather on mobile